createdAt,value
2023-01-04T00:00:21.118Z,0.90
2023-01-04T00:01:21.135Z,0.70
2023-01-04T00:02:21.273Z,0.70
2023-01-04T00:03:21.282Z,0.70
2023-01-04T00:04:21.053Z,0.60
2023-01-04T00:05:21.090Z,0.60
2023-01-04T00:06:21.048Z,0.60
2023-01-04T00:07:21.102Z,1.00
2023-01-04T00:08:20.991Z,0.60
2023-01-04T00:09:20.997Z,1.00
2023-01-04T00:10:20.975Z,0.70
2023-01-04T00:11:21.071Z,0.60
2023-01-04T00:12:20.965Z,0.80
2023-01-04T00:13:21.241Z,0.90
2023-01-04T00:14:20.939Z,0.60
2023-01-04T00:15:20.944Z,1.00
2023-01-04T00:16:21.199Z,0.70
2023-01-04T00:17:20.910Z,0.80
2023-01-04T00:18:20.897Z,0.60
2023-01-04T00:19:20.903Z,0.40
2023-01-04T00:20:29.996Z,0.60
2023-01-04T00:21:28.478Z,0.80
2023-01-04T00:22:27.356Z,0.60
2023-01-04T00:23:27.338Z,0.80
2023-01-04T00:24:27.586Z,0.50
2023-01-04T00:25:20.812Z,0.70
2023-01-04T00:26:20.836Z,0.80
2023-01-04T00:27:27.622Z,0.70
2023-01-04T00:28:20.856Z,0.60
2023-01-04T00:29:20.783Z,0.80
2023-01-04T00:30:22.053Z,0.60
2023-01-04T00:31:20.930Z,0.80
2023-01-04T00:32:27.269Z,1.40
2023-01-04T00:33:27.246Z,0.30
2023-01-04T00:34:20.742Z,0.70
2023-01-04T00:35:43.975Z,0.50
2023-01-04T00:36:20.740Z,0.60
2023-01-04T00:37:20.695Z,0.80
2023-01-04T00:38:20.694Z,0.70
2023-01-04T00:39:20.695Z,0.50
2023-01-04T00:40:20.669Z,0.50
2023-01-04T00:41:49.316Z,0.50
2023-01-04T00:42:20.678Z,0.70
2023-01-04T00:43:20.656Z,0.80
2023-01-04T00:44:20.628Z,0.70
2023-01-04T00:45:20.618Z,0.80
2023-01-04T00:46:20.934Z,0.70
2023-01-04T00:47:20.623Z,0.50
2023-01-04T00:48:20.584Z,0.70
2023-01-04T00:49:20.565Z,0.80
2023-01-04T00:50:20.563Z,1.10
2023-01-04T00:51:20.557Z,0.50
2023-01-04T00:52:20.567Z,0.70
2023-01-04T00:53:20.526Z,0.60
2023-01-04T00:54:20.546Z,0.60
2023-01-04T00:55:20.525Z,0.70
2023-01-04T00:56:20.498Z,0.90
2023-01-04T00:57:20.540Z,1.00
2023-01-04T00:58:20.498Z,0.90
2023-01-04T00:59:20.494Z,1.10
2023-01-04T01:00:21.069Z,1.20
2023-01-04T01:01:20.571Z,1.00
2023-01-04T01:02:20.609Z,1.60
2023-01-04T01:03:20.587Z,1.30
2023-01-04T01:04:20.546Z,0.90
2023-01-04T01:05:20.400Z,1.00
2023-01-04T01:06:20.397Z,1.20
2023-01-04T01:07:20.404Z,1.10
2023-01-04T01:08:20.378Z,1.00
2023-01-04T01:09:20.368Z,1.10
2023-01-04T01:10:20.399Z,1.10
2023-01-04T01:11:20.350Z,1.20
2023-01-04T01:12:20.373Z,1.40
2023-01-04T01:13:20.321Z,1.60
2023-01-04T01:14:20.316Z,1.30
2023-01-04T01:15:20.306Z,1.10
2023-01-04T01:16:37.902Z,1.70
2023-01-04T01:17:20.306Z,1.80
2023-01-04T01:18:20.316Z,2.30
2023-01-04T01:19:20.280Z,2.30
2023-01-04T01:20:20.246Z,2.40
2023-01-04T01:21:20.247Z,3.30
2023-01-04T01:22:20.261Z,2.20
2023-01-04T01:23:20.218Z,2.50
2023-01-04T01:24:20.237Z,3.30
2023-01-04T01:25:20.201Z,3.90
2023-01-04T01:26:20.197Z,5.00
2023-01-04T01:27:20.193Z,3.40
2023-01-04T01:28:20.184Z,7.50
2023-01-04T01:29:20.215Z,7.60
2023-01-04T01:30:20.153Z,5.20
2023-01-04T01:31:20.160Z,4.90
2023-01-04T01:32:20.211Z,4.60
2023-01-04T01:33:20.108Z,5.50
2023-01-04T01:34:20.126Z,7.20
2023-01-04T01:35:20.109Z,6.90
2023-01-04T01:36:20.094Z,7.70
2023-01-04T01:37:20.095Z,10.00
2023-01-04T01:38:20.118Z,9.50
2023-01-04T01:39:20.058Z,7.90
2023-01-04T01:40:20.050Z,9.70
2023-01-04T01:41:20.037Z,9.70
2023-01-04T01:42:20.057Z,11.10
2023-01-04T01:43:20.007Z,10.30
2023-01-04T01:44:20.008Z,10.70
2023-01-04T01:45:19.993Z,14.90
2023-01-04T01:46:20.064Z,12.60
2023-01-04T01:47:19.994Z,15.90
2023-01-04T01:48:19.958Z,14.00
2023-01-04T01:49:19.947Z,12.50
2023-01-04T01:50:19.945Z,17.10
2023-01-04T01:51:19.923Z,18.50
2023-01-04T01:52:19.953Z,22.00
2023-01-04T01:53:19.926Z,22.10
2023-01-04T01:54:19.891Z,22.90
2023-01-04T01:55:19.888Z,22.50
2023-01-04T01:56:19.931Z,25.60
2023-01-04T01:57:19.903Z,23.40
2023-01-04T01:58:19.880Z,22.10
2023-01-04T01:59:19.837Z,26.50
2023-01-04T02:00:19.854Z,25.00
2023-01-04T02:01:19.960Z,27.90
2023-01-04T02:02:20.039Z,39.90
2023-01-04T02:03:19.954Z,42.20
2023-01-04T02:04:19.792Z,41.30
2023-01-04T02:05:19.786Z,41.80
2023-01-04T02:06:19.807Z,34.40
2023-01-04T02:07:19.788Z,34.90
2023-01-04T02:08:19.763Z,39.20
2023-01-04T02:09:19.739Z,46.00
2023-01-04T02:10:19.727Z,50.50
2023-01-04T02:11:19.718Z,64.40
2023-01-04T02:12:19.729Z,55.80
2023-01-04T02:13:19.720Z,52.30
2023-01-04T02:14:19.706Z,55.70
2023-01-04T02:15:19.680Z,57.40
2023-01-04T02:16:19.862Z,65.60
2023-01-04T02:17:19.682Z,67.10
2023-01-04T02:18:19.685Z,70.20
2023-01-04T02:19:19.631Z,69.10
2023-01-04T02:20:19.644Z,73.90
2023-01-04T02:21:19.613Z,80.00
2023-01-04T02:22:19.643Z,71.30
2023-01-04T02:23:19.591Z,66.80
2023-01-04T02:24:19.587Z,75.80
2023-01-04T02:25:19.607Z,81.10
2023-01-04T02:26:19.561Z,79.30
2023-01-04T02:27:19.551Z,87.70
2023-01-04T02:28:19.564Z,72.50
2023-01-04T02:29:19.566Z,84.60
2023-01-04T02:30:19.563Z,96.60
2023-01-04T02:31:19.656Z,107.50
2023-01-04T02:32:19.493Z,106.90
2023-01-04T02:33:19.534Z,102.70
2023-01-04T02:34:19.504Z,99.90
2023-01-04T02:35:19.463Z,104.70
2023-01-04T02:36:19.461Z,107.90
2023-01-04T02:37:19.449Z,107.00
2023-01-04T02:38:19.467Z,101.10
2023-01-04T02:39:19.426Z,108.60
2023-01-04T02:40:19.424Z,112.80
2023-01-04T02:41:19.400Z,102.30
2023-01-04T02:42:19.406Z,107.40
2023-01-04T02:43:19.415Z,109.60
2023-01-04T02:44:19.377Z,111.70
2023-01-04T02:45:19.370Z,112.20
2023-01-04T02:46:19.527Z,111.50
2023-01-04T02:47:19.349Z,114.60
2023-01-04T02:48:19.355Z,115.40
2023-01-04T02:49:19.323Z,117.40
2023-01-04T02:50:19.324Z,117.00
2023-01-04T02:51:19.324Z,123.30
2023-01-04T02:52:19.291Z,127.30
2023-01-04T02:53:19.307Z,131.20
2023-01-04T02:54:19.289Z,121.60
2023-01-04T02:55:19.253Z,120.60
2023-01-04T02:56:19.251Z,122.60
2023-01-04T02:57:19.251Z,130.50
2023-01-04T02:58:19.254Z,126.30
2023-01-04T02:59:19.215Z,121.70
2023-01-04T03:00:19.219Z,112.40
2023-01-04T03:01:19.392Z,117.40
2023-01-04T03:02:19.416Z,125.70
2023-01-04T03:03:19.346Z,128.80
2023-01-04T03:04:19.172Z,125.10
2023-01-04T03:05:19.156Z,129.00
2023-01-04T03:06:19.147Z,127.60
2023-01-04T03:07:19.124Z,126.20
2023-01-04T03:08:19.149Z,119.90
2023-01-04T03:09:19.147Z,118.90
2023-01-04T03:10:19.099Z,125.70
2023-01-04T03:11:19.088Z,132.00
2023-01-04T03:12:19.094Z,133.00
2023-01-04T03:13:19.091Z,135.70
2023-01-04T03:14:33.203Z,132.20
2023-01-04T03:15:19.058Z,131.60
2023-01-04T03:16:19.073Z,129.10
2023-01-04T03:17:19.024Z,132.50
2023-01-04T03:18:19.070Z,129.00
2023-01-04T03:19:19.025Z,125.20
2023-01-04T03:20:18.996Z,118.90
2023-01-04T03:21:19.003Z,119.60
2023-01-04T03:22:19.000Z,125.90
2023-01-04T03:23:19.020Z,122.90
2023-01-04T03:24:18.967Z,126.20
2023-01-04T03:25:18.953Z,126.00
2023-01-04T03:26:18.945Z,125.80
2023-01-04T03:27:18.953Z,128.50
2023-01-04T03:28:18.959Z,134.80
2023-01-04T03:29:18.907Z,138.60
2023-01-04T03:30:18.910Z,133.40
2023-01-04T03:31:18.971Z,137.40
2023-01-04T03:32:18.908Z,137.80
2023-01-04T03:33:18.857Z,132.20
2023-01-04T03:34:18.881Z,131.40
2023-01-04T03:35:18.857Z,130.80
2023-01-04T03:36:18.841Z,134.50
2023-01-04T03:37:18.834Z,135.30
2023-01-04T03:38:18.813Z,133.60
2023-01-04T03:39:18.830Z,139.60
2023-01-04T03:40:18.793Z,141.50
2023-01-04T03:41:18.776Z,138.40
2023-01-04T03:42:18.765Z,136.70
2023-01-04T03:43:18.755Z,136.60
2023-01-04T03:44:18.776Z,132.50
2023-01-04T03:45:18.727Z,130.40
2023-01-04T03:46:18.769Z,136.70
2023-01-04T03:47:18.824Z,126.30
2023-01-04T03:48:18.704Z,140.60
2023-01-04T03:49:18.745Z,138.40
2023-01-04T03:50:18.701Z,134.10
2023-01-04T03:51:18.671Z,133.50
2023-01-04T03:52:18.665Z,139.20
2023-01-04T03:53:18.651Z,136.80
2023-01-04T03:54:18.679Z,134.10
2023-01-04T03:55:18.656Z,141.20
2023-01-04T03:56:18.623Z,141.80
2023-01-04T03:57:18.619Z,134.90
2023-01-04T03:58:18.607Z,136.90
2023-01-04T03:59:18.633Z,142.30
2023-01-04T04:00:18.588Z,138.10
2023-01-04T04:01:18.728Z,140.80
2023-01-04T04:02:18.619Z,142.10
2023-01-04T04:03:18.559Z,146.20
2023-01-04T04:04:18.607Z,146.50
2023-01-04T04:05:18.531Z,152.80
2023-01-04T04:06:18.513Z,149.70
2023-01-04T04:07:18.530Z,149.50
2023-01-04T04:08:18.558Z,146.70
2023-01-04T04:09:18.505Z,150.30
2023-01-04T04:10:18.479Z,147.30
2023-01-04T04:11:18.457Z,148.00
2023-01-04T04:12:18.458Z,148.80
2023-01-04T04:13:18.467Z,144.10
2023-01-04T04:14:18.458Z,147.20
2023-01-04T04:15:18.458Z,146.90
2023-01-04T04:16:18.569Z,149.60
2023-01-04T04:17:18.403Z,149.30
2023-01-04T04:18:18.385Z,148.60
2023-01-04T04:19:18.402Z,142.60
2023-01-04T04:20:18.435Z,142.90
2023-01-04T04:21:18.330Z,143.40
2023-01-04T04:22:18.365Z,139.70
2023-01-04T04:23:18.332Z,144.10
2023-01-04T04:24:26.086Z,143.80
2023-01-04T04:25:24.838Z,146.00
2023-01-04T04:26:24.809Z,145.30
2023-01-04T04:27:24.815Z,145.50
2023-01-04T04:28:24.776Z,138.40
2023-01-04T04:29:18.281Z,135.40
2023-01-04T04:30:26.145Z,138.50
2023-01-04T04:31:18.282Z,142.10
2023-01-04T04:32:18.322Z,139.00
2023-01-04T04:33:24.242Z,137.00
2023-01-04T04:34:24.729Z,134.70
2023-01-04T04:35:18.233Z,141.70
2023-01-04T04:36:18.212Z,138.80
2023-01-04T04:37:18.219Z,141.00
2023-01-04T04:38:18.236Z,140.40
2023-01-04T04:39:18.169Z,139.50
2023-01-04T04:40:33.246Z,141.30
2023-01-04T04:41:21.371Z,141.70
2023-01-04T04:42:18.141Z,143.40
2023-01-04T04:43:18.126Z,141.80
2023-01-04T04:44:18.127Z,144.30
2023-01-04T04:45:18.148Z,140.80
2023-01-04T04:46:18.194Z,140.90
2023-01-04T04:47:18.104Z,138.30
2023-01-04T04:48:18.083Z,145.30
2023-01-04T04:49:18.057Z,139.90
2023-01-04T04:50:18.123Z,140.90
2023-01-04T04:51:18.035Z,143.00
2023-01-04T04:52:18.047Z,139.60
2023-01-04T04:53:18.023Z,138.70
2023-01-04T04:54:18.029Z,140.00
2023-01-04T04:55:18.029Z,142.10
2023-01-04T04:56:18.017Z,137.60
2023-01-04T04:57:17.979Z,138.80
2023-01-04T04:58:17.979Z,136.60
2023-01-04T04:59:17.956Z,140.20
2023-01-04T05:00:17.969Z,140.20
2023-01-04T05:01:18.066Z,138.10
2023-01-04T05:02:18.140Z,139.40
2023-01-04T05:03:18.012Z,147.90
2023-01-04T05:04:17.914Z,144.80
2023-01-04T05:05:17.908Z,151.60
2023-01-04T05:06:17.942Z,152.50
2023-01-04T05:07:17.882Z,151.40
2023-01-04T05:08:17.871Z,154.90
2023-01-04T05:09:24.362Z,150.40
2023-01-04T05:10:17.878Z,151.30
2023-01-04T05:11:17.848Z,148.60
2023-01-04T05:12:17.881Z,152.80
2023-01-04T05:13:17.815Z,151.60
2023-01-04T05:14:17.803Z,154.30
2023-01-04T05:15:17.822Z,155.30
2023-01-04T05:16:17.826Z,160.40
2023-01-04T05:17:17.783Z,160.30
2023-01-04T05:18:17.769Z,157.00
2023-01-04T05:19:17.742Z,155.70
2023-01-04T05:20:17.781Z,156.80
2023-01-04T05:21:20.224Z,157.40
2023-01-04T05:22:17.725Z,152.90
2023-01-04T05:23:17.698Z,154.00
2023-01-04T05:24:18.977Z,153.50
2023-01-04T05:25:17.681Z,156.80
2023-01-04T05:26:17.699Z,155.60
2023-01-04T05:27:17.654Z,161.30
2023-01-04T05:28:17.655Z,161.00
2023-01-04T05:29:17.638Z,163.80
2023-01-04T05:30:17.645Z,160.00
2023-01-04T05:31:17.668Z,161.50
2023-01-04T05:32:17.646Z,159.10
2023-01-04T05:33:17.551Z,159.50
2023-01-04T05:34:22.128Z,164.20
2023-01-04T05:35:17.595Z,164.00
2023-01-04T05:36:17.595Z,159.20
2023-01-04T05:37:17.579Z,163.50
2023-01-04T05:38:17.545Z,166.90
2023-01-04T05:39:17.551Z,159.00
2023-01-04T05:40:17.549Z,162.80
2023-01-04T05:41:17.564Z,158.80
2023-01-04T05:42:17.501Z,159.20
2023-01-04T05:43:17.493Z,163.40
2023-01-04T05:44:17.492Z,164.50
2023-01-04T05:45:17.483Z,161.60
2023-01-04T05:46:17.531Z,157.80
2023-01-04T05:47:17.446Z,161.80
2023-01-04T05:48:17.446Z,158.10
2023-01-04T05:49:17.431Z,160.80
2023-01-04T05:50:17.419Z,167.40
2023-01-04T05:51:17.436Z,166.60
2023-01-04T05:52:17.441Z,163.00
2023-01-04T05:53:17.409Z,167.20
2023-01-04T05:54:21.292Z,166.70
2023-01-04T05:55:17.364Z,164.50
2023-01-04T05:56:17.383Z,169.70
2023-01-04T05:57:17.359Z,173.10
2023-01-04T05:58:17.362Z,174.90
2023-01-04T05:59:17.331Z,170.60
2023-01-04T06:00:17.317Z,168.60
2023-01-04T06:01:17.387Z,168.20
2023-01-04T06:02:17.411Z,171.40
2023-01-04T06:03:17.430Z,166.50
2023-01-04T06:04:17.290Z,169.00
2023-01-04T06:05:17.263Z,168.00
2023-01-04T06:06:17.283Z,162.60
2023-01-04T06:07:17.257Z,175.00
2023-01-04T06:08:17.177Z,172.50
2023-01-04T06:09:17.164Z,173.60
2023-01-04T06:10:17.158Z,170.30
2023-01-04T06:11:20.165Z,172.50
2023-01-04T06:12:17.144Z,167.90
2023-01-04T06:13:17.114Z,166.80
2023-01-04T06:14:17.102Z,164.10
2023-01-04T06:15:17.110Z,168.50
2023-01-04T06:16:17.207Z,168.80
2023-01-04T06:17:17.158Z,170.40
2023-01-04T06:18:17.079Z,170.80
2023-01-04T06:19:17.065Z,166.90
2023-01-04T06:20:17.045Z,164.00
2023-01-04T06:21:17.059Z,167.20
2023-01-04T06:22:17.065Z,169.30
2023-01-04T06:23:17.031Z,162.80
2023-01-04T06:24:17.000Z,170.00
2023-01-04T06:25:16.999Z,165.00
2023-01-04T06:26:17.004Z,160.10
2023-01-04T06:27:16.999Z,166.10
2023-01-04T06:28:16.978Z,165.50
2023-01-04T06:29:16.951Z,164.80
2023-01-04T06:30:16.940Z,165.80
2023-01-04T06:31:16.989Z,167.40
2023-01-04T06:32:16.973Z,165.40
2023-01-04T06:33:16.925Z,163.30
2023-01-04T06:34:16.902Z,164.90
2023-01-04T06:35:16.917Z,161.10
2023-01-04T06:36:20.045Z,159.60
2023-01-04T06:37:16.913Z,164.00
2023-01-04T06:38:16.854Z,161.00
2023-01-04T06:39:16.840Z,159.70
2023-01-04T06:40:16.852Z,158.10
2023-01-04T06:41:16.822Z,157.80
2023-01-04T06:42:16.834Z,157.10
2023-01-04T06:43:16.810Z,154.20
2023-01-04T06:44:16.791Z,161.30
2023-01-04T06:45:16.794Z,157.60
2023-01-04T06:46:16.966Z,156.70
2023-01-04T06:47:16.773Z,153.00
2023-01-04T06:48:18.219Z,150.70
2023-01-04T06:49:16.753Z,153.10
2023-01-04T06:50:16.750Z,156.80
2023-01-04T06:51:16.720Z,157.70
2023-01-04T06:52:16.738Z,157.00
2023-01-04T06:53:16.726Z,157.60
2023-01-04T06:54:16.699Z,159.50
2023-01-04T06:55:16.702Z,158.70
2023-01-04T06:56:16.676Z,158.10
2023-01-04T06:57:16.681Z,155.90
2023-01-04T06:58:16.659Z,157.80
2023-01-04T06:59:16.634Z,157.40
2023-01-04T07:00:16.681Z,159.60
2023-01-04T07:01:16.725Z,159.60
2023-01-04T07:02:16.927Z,159.50
2023-01-04T07:03:23.236Z,160.90
2023-01-04T07:04:16.688Z,156.60
2023-01-04T07:05:16.569Z,158.90
2023-01-04T07:06:16.597Z,155.80
2023-01-04T07:07:16.564Z,159.40
2023-01-04T07:08:16.563Z,157.00
2023-01-04T07:09:16.533Z,158.20
2023-01-04T07:10:16.531Z,159.00
2023-01-04T07:11:16.517Z,156.40
2023-01-04T07:12:16.518Z,165.30
2023-01-04T07:13:16.528Z,161.60
2023-01-04T07:14:16.486Z,165.60
2023-01-04T07:15:38.738Z,158.20
2023-01-04T07:16:16.579Z,156.00
2023-01-04T07:17:16.443Z,163.90
2023-01-04T07:18:16.462Z,164.80
2023-01-04T07:19:16.423Z,165.60
2023-01-04T07:20:16.439Z,164.50
2023-01-04T07:21:16.427Z,167.50
2023-01-04T07:22:16.403Z,166.50
2023-01-04T07:23:16.474Z,160.00
2023-01-04T07:24:16.380Z,160.50
2023-01-04T07:25:16.368Z,160.20
2023-01-04T07:26:16.373Z,152.20
2023-01-04T07:27:16.351Z,155.30
2023-01-04T07:28:16.356Z,158.70
2023-01-04T07:29:16.335Z,154.70
2023-01-04T07:30:16.325Z,155.10
2023-01-04T07:31:16.338Z,159.70
2023-01-04T07:32:16.293Z,159.60
2023-01-04T07:33:16.304Z,164.00
2023-01-04T07:34:16.285Z,157.90
2023-01-04T07:35:16.260Z,161.50
2023-01-04T07:36:16.255Z,156.70
2023-01-04T07:37:16.248Z,163.40
2023-01-04T07:38:16.252Z,165.60
2023-01-04T07:39:16.232Z,157.50
2023-01-04T07:40:16.227Z,159.10
2023-01-04T07:41:16.212Z,158.70
2023-01-04T07:42:16.205Z,153.30
2023-01-04T07:43:16.205Z,159.90
2023-01-04T07:44:16.186Z,159.20
2023-01-04T07:45:16.172Z,154.80
2023-01-04T07:46:16.178Z,157.70
2023-01-04T07:47:16.141Z,157.50
2023-01-04T07:48:16.156Z,157.70
2023-01-04T07:49:17.908Z,156.90
2023-01-04T07:50:16.150Z,156.50
2023-01-04T07:51:16.107Z,158.00
2023-01-04T07:52:16.168Z,158.40
2023-01-04T07:53:16.112Z,154.10
2023-01-04T07:54:16.088Z,152.90
2023-01-04T07:55:16.061Z,158.60
2023-01-04T07:56:18.868Z,155.50
2023-01-04T07:57:16.038Z,155.50
2023-01-04T07:58:16.033Z,154.90
2023-01-04T07:59:16.029Z,153.90
2023-01-04T08:00:16.015Z,154.70
2023-01-04T08:01:16.199Z,156.20
2023-01-04T08:02:16.191Z,155.20
2023-01-04T08:03:15.987Z,164.60
2023-01-04T08:04:16.050Z,155.20
2023-01-04T08:05:15.998Z,147.90
2023-01-04T08:06:15.945Z,153.80
2023-01-04T08:07:15.938Z,158.30
2023-01-04T08:08:15.943Z,158.50
2023-01-04T08:09:15.942Z,157.30
2023-01-04T08:10:15.902Z,156.40
2023-01-04T08:11:15.926Z,154.70
2023-01-04T08:12:15.948Z,159.30
2023-01-04T08:13:15.867Z,159.00
2023-01-04T08:14:15.879Z,157.70
2023-01-04T08:15:15.852Z,161.60
2023-01-04T08:16:15.929Z,162.50
2023-01-04T08:17:15.829Z,160.90
2023-01-04T08:18:18.948Z,158.20
2023-01-04T08:19:15.836Z,158.40
2023-01-04T08:20:15.798Z,163.80
2023-01-04T08:21:15.805Z,161.30
2023-01-04T08:22:15.779Z,170.30
2023-01-04T08:23:15.770Z,161.80
2023-01-04T08:24:15.776Z,163.10
2023-01-04T08:25:15.765Z,162.50
2023-01-04T08:26:15.736Z,163.70
2023-01-04T08:27:15.751Z,162.00
2023-01-04T08:28:15.709Z,164.60
2023-01-04T08:29:15.735Z,165.50
2023-01-04T08:30:15.692Z,165.40
2023-01-04T08:31:15.813Z,165.50
2023-01-04T08:32:15.693Z,166.80
2023-01-04T08:33:15.691Z,170.70
2023-01-04T08:34:15.698Z,169.60
2023-01-04T08:35:15.646Z,168.80
2023-01-04T08:36:18.474Z,176.80
2023-01-04T08:37:15.639Z,173.50
2023-01-04T08:38:56.102Z,178.00
2023-01-04T08:39:15.654Z,175.30
2023-01-04T08:40:15.602Z,173.40
2023-01-04T08:41:56.170Z,168.70
2023-01-04T08:42:24.829Z,174.00
2023-01-04T08:44:26.375Z,165.60
2023-01-04T08:45:27.333Z,170.30
2023-01-04T08:46:27.391Z,174.20
2023-01-04T08:47:27.320Z,165.30
2023-01-04T08:48:27.311Z,168.20
2023-01-04T08:49:27.327Z,180.00
2023-01-04T08:50:27.293Z,172.20
2023-01-04T08:51:27.317Z,169.60
2023-01-04T08:52:27.284Z,165.50
2023-01-04T08:53:27.271Z,167.70
2023-01-04T08:54:27.275Z,164.90
2023-01-04T08:55:27.258Z,165.00
2023-01-04T08:56:27.225Z,169.70
2023-01-04T08:57:27.244Z,166.90
2023-01-04T08:58:27.212Z,172.10
2023-01-04T08:59:27.217Z,168.30
2023-01-04T09:00:27.271Z,168.10
2023-01-04T09:01:27.358Z,169.60
2023-01-04T09:02:27.434Z,161.90
2023-01-04T09:03:27.206Z,165.70
2023-01-04T09:04:27.220Z,165.00
2023-01-04T09:05:27.138Z,156.80
2023-01-04T09:06:27.224Z,163.40
2023-01-04T09:07:27.131Z,163.50
2023-01-04T09:08:27.121Z,166.00
2023-01-04T09:09:27.087Z,160.80
2023-01-04T09:10:27.128Z,159.30
2023-01-04T09:11:27.088Z,162.90
2023-01-04T09:12:27.068Z,163.50
2023-01-04T09:13:27.054Z,163.80
2023-01-04T09:14:27.057Z,164.00
2023-01-04T09:15:27.051Z,166.20
2023-01-04T09:16:27.049Z,166.80
2023-01-04T09:17:27.011Z,165.40
2023-01-04T09:18:31.076Z,167.90
2023-01-04T09:19:27.008Z,170.50
2023-01-04T09:20:27.007Z,168.10
2023-01-04T09:21:27.076Z,167.20
2023-01-04T09:22:27.055Z,167.90
2023-01-04T09:23:26.953Z,169.10
2023-01-04T09:24:26.967Z,167.70
2023-01-04T09:25:26.948Z,171.40
2023-01-04T09:26:26.951Z,167.30
2023-01-04T09:27:26.910Z,172.30
2023-01-04T09:28:26.910Z,169.20
2023-01-04T09:29:26.891Z,171.70
2023-01-04T09:30:26.907Z,173.30
2023-01-04T09:31:26.932Z,169.60
2023-01-04T09:32:26.865Z,176.10
2023-01-04T09:33:47.716Z,170.70
2023-01-04T09:34:26.853Z,175.50
2023-01-04T09:35:26.861Z,172.80
2023-01-04T09:36:26.854Z,173.60
2023-01-04T09:37:26.817Z,180.70
2023-01-04T09:38:26.804Z,176.40
2023-01-04T09:39:26.791Z,176.20
2023-01-04T09:40:26.805Z,180.00
2023-01-04T09:41:26.762Z,178.20
2023-01-04T09:42:31.664Z,178.40
2023-01-04T09:43:26.761Z,177.30
2023-01-04T09:44:46.159Z,182.80
2023-01-04T09:45:26.765Z,180.60
2023-01-04T09:46:26.807Z,184.90
2023-01-04T09:47:26.707Z,183.80
2023-01-04T09:48:26.802Z,180.60
2023-01-04T09:49:26.684Z,178.60
2023-01-04T09:50:26.832Z,184.40
2023-01-04T09:51:33.143Z,186.40
2023-01-04T09:52:33.661Z,187.90
2023-01-04T09:53:26.649Z,187.00
2023-01-04T09:54:26.653Z,180.30
2023-01-04T09:55:38.842Z,173.30
2023-01-04T09:56:26.647Z,178.80
2023-01-04T09:57:26.642Z,185.00
2023-01-04T09:58:26.610Z,180.90
2023-01-04T09:59:26.582Z,182.00
2023-01-04T10:00:26.693Z,184.80
2023-01-04T10:01:26.693Z,181.20
2023-01-04T10:02:26.770Z,181.80
2023-01-04T10:03:26.721Z,182.10
2023-01-04T10:04:26.544Z,183.50
2023-01-04T10:05:26.572Z,190.80
2023-01-04T10:06:26.527Z,191.70
2023-01-04T10:07:26.512Z,193.50
2023-01-04T10:08:26.504Z,182.50
2023-01-04T10:09:26.492Z,189.90
2023-01-04T10:10:26.501Z,175.10
2023-01-04T10:11:27.522Z,192.50
2023-01-04T10:12:26.453Z,195.40
2023-01-04T10:13:26.440Z,190.80
2023-01-04T10:14:26.444Z,189.50
2023-01-04T10:15:26.425Z,188.90
2023-01-04T10:17:01.238Z,184.00
2023-01-04T10:17:57.619Z,188.00
2023-01-04T10:21:10.330Z,183.90
2023-01-04T10:21:32.711Z,191.20
2023-01-04T10:21:38.015Z,192.10
2023-01-04T10:22:35.017Z,195.80
2023-01-04T10:23:34.990Z,189.40
2023-01-04T10:24:34.989Z,191.50
2023-01-04T10:25:35.016Z,196.70
2023-01-04T10:26:34.962Z,193.80
2023-01-04T10:27:40.892Z,194.40
2023-01-04T10:28:34.960Z,196.90
2023-01-04T10:29:34.922Z,188.40
2023-01-04T10:30:34.925Z,195.10
2023-01-04T10:31:40.347Z,193.30
2023-01-04T10:32:35.108Z,193.50
2023-01-04T10:33:34.891Z,190.10
2023-01-04T10:34:34.904Z,180.10
2023-01-04T10:35:34.873Z,190.10
2023-01-04T10:36:34.881Z,185.10
2023-01-04T10:37:34.858Z,186.60
2023-01-04T10:38:34.865Z,188.80
2023-01-04T10:39:34.822Z,187.00
2023-01-04T10:40:34.817Z,188.70
2023-01-04T10:41:34.823Z,193.60
2023-01-04T10:42:34.797Z,191.30
2023-01-04T10:44:10.085Z,193.50
2023-01-04T10:44:34.792Z,195.10
2023-01-04T10:45:34.774Z,188.60
2023-01-04T10:46:34.815Z,187.40
2023-01-04T10:47:34.739Z,197.20
2023-01-04T10:48:34.741Z,195.20
2023-01-04T10:49:34.718Z,187.50
2023-01-04T10:50:34.725Z,190.60
2023-01-04T10:51:34.768Z,191.00
2023-01-04T10:52:34.689Z,188.80
2023-01-04T10:53:34.683Z,186.80
2023-01-04T10:54:34.707Z,184.40
2023-01-04T10:55:40.658Z,176.40
2023-01-04T10:56:34.685Z,187.10
2023-01-04T10:57:34.656Z,186.20
2023-01-04T10:58:34.633Z,189.60
2023-01-04T10:59:34.619Z,186.60
2023-01-04T11:00:34.693Z,189.50
2023-01-04T11:01:34.734Z,189.10
2023-01-04T11:02:34.832Z,185.20
2023-01-04T11:03:34.610Z,185.80
2023-01-04T11:04:34.569Z,187.20
2023-01-04T11:05:34.655Z,186.20
2023-01-04T11:06:34.563Z,192.60
2023-01-04T11:07:34.579Z,191.00
2023-01-04T11:08:34.527Z,190.10
2023-01-04T11:09:34.514Z,181.90
2023-01-04T11:10:34.515Z,187.60
2023-01-04T11:11:34.531Z,194.70
2023-01-04T11:12:34.478Z,189.50
2023-01-04T11:13:34.469Z,189.20
2023-01-04T11:14:37.409Z,192.20
2023-01-04T11:15:34.451Z,192.00
2023-01-04T11:16:34.539Z,189.20
2023-01-04T11:17:34.452Z,187.10
2023-01-04T11:18:34.413Z,191.20
2023-01-04T11:19:34.431Z,193.00
2023-01-04T11:20:38.109Z,193.40
2023-01-04T11:21:34.431Z,186.80
2023-01-04T11:22:34.399Z,187.10
2023-01-04T11:23:34.376Z,189.70
2023-01-04T11:24:34.589Z,188.40
2023-01-04T11:25:35.778Z,188.40
2023-01-04T11:26:34.363Z,183.10
2023-01-04T11:27:34.320Z,184.80
2023-01-04T11:28:34.311Z,185.00
2023-01-04T11:29:34.302Z,190.20
2023-01-04T11:30:34.289Z,193.40
2023-01-04T11:31:34.344Z,189.20
2023-01-04T11:32:34.279Z,186.70
2023-01-04T11:33:34.285Z,185.40
2023-01-04T11:34:34.245Z,186.50
2023-01-04T11:35:37.607Z,191.90
2023-01-04T11:36:34.257Z,189.70
2023-01-04T11:37:34.232Z,198.90
2023-01-04T11:38:34.213Z,196.00
2023-01-04T11:39:34.219Z,191.60
2023-01-04T11:40:34.180Z,193.10
2023-01-04T11:41:34.205Z,194.80
2023-01-04T11:42:34.166Z,194.70
2023-01-04T11:43:34.158Z,192.00
2023-01-04T11:44:34.151Z,187.00
2023-01-04T11:45:34.168Z,188.90
2023-01-04T11:46:34.188Z,192.00
2023-01-04T11:47:34.133Z,193.70
2023-01-04T11:48:34.101Z,189.50
2023-01-04T11:49:34.095Z,190.00
2023-01-04T11:50:34.086Z,195.10
2023-01-04T11:51:34.076Z,194.30
2023-01-04T11:52:34.095Z,197.10
2023-01-04T11:53:34.056Z,194.80
2023-01-04T11:54:34.040Z,188.80
2023-01-04T11:55:34.036Z,199.60
2023-01-04T11:56:34.035Z,194.30
2023-01-04T11:57:34.044Z,195.30
2023-01-04T11:58:34.005Z,196.40
2023-01-04T11:59:34.003Z,199.90
2023-01-04T12:00:33.977Z,204.40
2023-01-04T12:01:34.078Z,198.60
2023-01-04T12:03:33.986Z,200.30
2023-01-04T12:04:35.567Z,200.70
2023-01-04T12:05:33.941Z,194.10
2023-01-04T12:06:33.917Z,199.50
2023-01-04T12:07:33.956Z,195.80
2023-01-04T12:08:33.901Z,196.00
2023-01-04T12:09:33.900Z,189.30
2023-01-04T12:10:33.871Z,193.10
2023-01-04T12:11:33.884Z,195.00
2023-01-04T12:12:33.882Z,198.50
2023-01-04T12:13:33.860Z,198.80
2023-01-04T12:14:33.840Z,201.10
2023-01-04T12:15:33.828Z,195.90
2023-01-04T12:16:33.894Z,197.70
2023-01-04T12:17:38.050Z,196.20
2023-01-04T12:18:33.790Z,190.40
2023-01-04T12:19:33.791Z,195.40
2023-01-04T12:20:33.804Z,188.00
2023-01-04T12:21:33.791Z,196.40
2023-01-04T12:22:33.779Z,198.60
2023-01-04T12:23:33.783Z,191.20
2023-01-04T12:24:33.733Z,199.00
2023-01-04T12:25:33.747Z,197.70
2023-01-04T12:26:33.730Z,196.30
2023-01-04T12:27:33.726Z,199.10
2023-01-04T12:28:33.697Z,189.90
2023-01-04T12:29:33.687Z,189.90
2023-01-04T12:30:33.665Z,187.30
2023-01-04T12:31:33.759Z,191.10
2023-01-04T12:32:33.672Z,193.90
2023-01-04T12:33:33.638Z,197.10
2023-01-04T12:34:33.653Z,195.70
2023-01-04T12:35:33.623Z,197.00
2023-01-04T12:36:33.626Z,193.80
2023-01-04T12:37:33.618Z,194.00
2023-01-04T12:38:33.588Z,191.70
2023-01-04T12:39:33.585Z,189.50